Time;durP1;ratioP1;P1;durP2;ratioP2;P2;SDS_P1;SDS_P2;PMS_P1;PMS_P2;Temp;Humidity;BMP_temperature;BMP_pressure;BME280_temperature;BME280_humidity;BME280_pressure;Samples;Min_cycle;Max_cycle;Signal;HPM_P1;HPM_P2
2022/07/06 00:02:00;;;;;;;3.98;3.17;;;;;;;24.14;57.16;99342.55;1811373;79;21106;-76
2022/07/06 00:04:26;;;;;;;11.78;3.50;;;;;;;24.14;57.07;99339.86;1811138;79;21816;-77
2022/07/06 00:06:54;;;;;;;4.03;3.40;;;;;;;24.13;57.01;99340.37;1811226;79;20992;-77
2022/07/06 00:09:20;;;;;;;7.12;3.30;;;;;;;24.13;57.10;99336.84;1811075;79;20964;-77
2022/07/06 00:11:47;;;;;;;4.70;3.83;;;;;;;24.11;57.39;99335.13;1811514;79;21054;-76
2022/07/06 00:14:14;;;;;;;5.55;3.80;;;;;;;24.11;57.58;99332.95;1811962;78;21858;-76
2022/07/06 00:16:40;;;;;;;3.65;3.33;;;;;;;24.09;57.63;99327.72;1811241;78;21906;-76
2022/07/06 00:19:07;;;;;;;4.58;3.30;;;;;;;24.06;57.89;99329.34;1811233;79;21005;-76
2022/07/06 00:21:34;;;;;;;6.37;3.70;;;;;;;24.05;57.83;99331.67;1811254;79;21024;-76
2022/07/06 00:24:00;;;;;;;7.20;3.65;;;;;;;24.02;57.97;99335.98;1811414;79;21068;-75
2022/07/06 00:26:27;;;;;;;3.65;3.35;;;;;;;24.01;58.21;99327.59;1811250;79;21032;-76
2022/07/06 00:28:53;;;;;;;4.75;3.80;;;;;;;24.00;58.12;99327.22;1811104;79;21119;-77
2022/07/06 00:31:19;;;;;;;8.53;3.20;;;;;;;23.99;58.38;99324.67;1803623;79;21084;-77
2022/07/06 00:33:46;;;;;;;3.92;3.55;;;;;;;23.98;58.27;99324.34;1811337;79;21115;-76
2022/07/06 00:36:13;;;;;;;4.15;3.40;;;;;;;23.97;58.38;99328.84;1811058;79;21055;-76
2022/07/06 00:38:40;;;;;;;7.12;3.92;;;;;;;23.94;58.61;99329.16;1811482;79;21063;-76
2022/07/06 00:41:07;;;;;;;4.28;3.87;;;;;;;23.91;58.72;99330.79;1811255;79;21176;-77
2022/07/06 00:43:57;;;;;;;4.12;3.83;;;;;;;23.88;58.74;99331.07;1811133;79;21052;-77
2022/07/06 00:46:28;;;;;;;4.47;4.10;;;;;;;23.86;58.74;99326.34;1805446;79;21709;-77
2022/07/06 00:48:55;;;;;;;5.45;3.20;;;;;;;23.86;59.05;99330.37;1805316;79;21175;-76
2022/07/06 00:51:31;;;;;;;8.35;4.17;;;;;;;23.83;58.92;99326.62;1805170;79;21029;-77
2022/07/06 00:54:00;;;;;;;4.67;3.50;;;;;;;23.82;59.09;99323.56;1805131;79;21138;-76
2022/07/06 00:56:27;;;;;;;5.10;4.00;;;;;;;23.79;59.27;99326.50;1805199;79;21049;-77
2022/07/06 00:58:54;;;;;;;4.50;3.65;;;;;;;23.74;59.12;99323.77;1805500;79;21072;-76
2022/07/06 01:01:21;;;;;;;4.33;3.60;;;;;;;23.70;59.11;99322.84;1805091;79;21085;-77
2022/07/06 01:03:48;;;;;;;5.87;4.08;;;;;;;23.69;58.98;99327.38;1805220;79;21071;-77
2022/07/06 01:06:16;;;;;;;8.63;4.62;;;;;;;23.68;58.86;99316.77;1805281;79;21564;-76
2022/07/06 01:08:42;;;;;;;4.85;3.70;;;;;;;23.66;58.80;99320.94;1805106;79;21616;-77
2022/07/06 01:11:09;;;;;;;4.58;3.80;;;;;;;23.65;59.12;99321.08;1805523;79;21119;-77
2022/07/06 01:13:36;;;;;;;4.80;4.35;;;;;;;23.61;59.23;99316.48;1805240;79;21033;-76
2022/07/06 01:16:03;;;;;;;5.37;4.05;;;;;;;23.59;59.25;99320.28;1805448;79;21076;-77
2022/07/06 01:18:30;;;;;;;5.78;3.70;;;;;;;23.54;59.13;99319.39;1805098;79;21135;-76
2022/07/06 01:21:12;;;;;;;7.92;4.12;;;;;;;23.52;59.10;99318.19;1805250;79;21075;-77
2022/07/06 01:23:44;;;;;;;4.30;3.90;;;;;;;23.50;59.26;99318.83;1804942;79;20989;-76
2022/07/06 01:26:15;;;;;;;6.50;3.62;;;;;;;23.48;59.44;99321.28;1805023;79;21001;-77
2022/07/06 01:28:43;;;;;;;7.97;4.25;;;;;;;23.46;59.50;99319.25;1805242;79;21041;-76
2022/07/06 01:31:21;;;;;;;7.90;4.03;;;;;;;23.45;59.56;99315.72;1805367;79;21075;-76
2022/07/06 01:33:54;;;;;;;4.92;4.10;;;;;;;23.44;59.96;99318.04;1805118;79;21028;-77
2022/07/06 01:36:21;;;;;;;4.20;3.80;;;;;;;23.43;59.77;99322.20;1805494;79;21039;-77
2022/07/06 01:38:54;;;;;;;8.20;4.08;;;;;;;23.41;59.88;99314.79;1805227;79;21005;-76
2022/07/06 01:41:20;;;;;;;5.55;3.80;;;;;;;23.39;59.54;99310.91;1804420;79;21017;-77
2022/07/06 01:43:47;;;;;;;8.55;4.00;;;;;;;23.37;59.55;99307.02;1805244;78;21162;-77
2022/07/06 01:46:15;;;;;;;5.33;4.25;;;;;;;23.36;59.28;99303.96;1811499;79;21051;-76
2022/07/06 01:48:41;;;;;;;4.35;3.95;;;;;;;23.37;59.16;99303.48;1813674;79;21036;-76
2022/07/06 01:51:08;;;;;;;5.97;4.00;;;;;;;23.35;59.14;99309.47;1813751;78;20980;-77
2022/07/06 01:53:36;;;;;;;6.20;3.80;;;;;;;23.33;58.92;99313.66;1814071;79;20964;-76
2022/07/06 01:56:05;;;;;;;5.00;4.30;;;;;;;23.31;58.75;99318.30;1813639;78;21222;-76
2022/07/06 01:58:32;;;;;;;4.70;3.60;;;;;;;23.30;58.64;99318.44;1813786;78;20977;-77
2022/07/06 02:00:59;;;;;;;6.30;3.58;;;;;;;23.27;58.77;99316.89;1813787;78;21526;-76
2022/07/06 02:03:25;;;;;;;7.25;3.83;;;;;;;23.26;58.90;99315.69;1813971;79;21531;-76
2022/07/06 02:05:52;;;;;;;4.15;3.75;;;;;;;23.24;58.82;99323.88;1813526;79;21452;-76
2022/07/06 02:08:21;;;;;;;9.65;4.12;;;;;;;23.21;59.01;99312.58;1813769;79;21135;-76
2022/07/06 02:10:48;;;;;;;4.17;3.77;;;;;;;23.19;59.04;99310.03;1813615;79;20968;-77
2022/07/06 02:13:14;;;;;;;4.35;3.95;;;;;;;23.17;59.05;99305.30;1813637;79;21034;-76
2022/07/06 02:15:41;;;;;;;7.22;4.17;;;;;;;23.16;59.31;99304.94;1813627;78;21055;-77
2022/07/06 02:18:08;;;;;;;11.03;4.17;;;;;;;23.15;59.30;99304.09;1805427;79;21065;-77
2022/07/06 02:20:35;;;;;;;4.60;3.87;;;;;;;23.14;59.31;99304.23;1787045;80;21132;-76
2022/07/06 02:23:01;;;;;;;6.30;4.15;;;;;;;23.13;59.43;99305.20;1786856;79;21053;-76
2022/07/06 02:25:28;;;;;;;7.00;4.10;;;;;;;23.12;59.59;99301.69;1786983;80;21864;-75
2022/07/06 02:27:56;;;;;;;5.92;4.28;;;;;;;23.10;59.51;99301.45;1787065;80;21022;-75
2022/07/06 02:30:23;;;;;;;4.75;4.03;;;;;;;23.09;59.34;99305.14;1786810;80;21056;-76
2022/07/06 02:32:51;;;;;;;6.55;4.20;;;;;;;23.08;59.52;99300.75;1786905;79;21643;-75
2022/07/06 02:35:17;;;;;;;4.72;4.00;;;;;;;23.06;59.36;99300.02;1786878;80;21045;-76
2022/07/06 02:37:44;;;;;;;12.78;4.22;;;;;;;23.05;59.28;99303.67;1786813;79;20990;-76
2022/07/06 02:40:12;;;;;;;5.05;4.08;;;;;;;23.04;59.32;99303.34;1787006;79;21029;-77
2022/07/06 02:42:38;;;;;;;7.17;4.10;;;;;;;23.03;58.96;99298.95;1786916;79;21041;-76
2022/07/06 02:45:07;;;;;;;7.30;4.20;;;;;;;23.03;58.95;99303.81;1789254;79;21584;-77
2022/07/06 02:47:35;;;;;;;5.80;4.37;;;;;;;23.03;59.02;99298.44;1805205;79;20999;-77
2022/07/06 02:50:05;;;;;;;8.60;5.20;;;;;;;23.05;59.22;99299.65;1805180;79;20970;-75
2022/07/06 02:52:32;;;;;;;4.55;4.15;;;;;;;23.07;59.23;99303.09;1805141;79;21060;-76
2022/07/06 02:54:59;;;;;;;5.70;4.30;;;;;;;23.07;59.05;99299.08;1807122;79;20981;-76
2022/07/06 02:57:26;;;;;;;5.83;4.40;;;;;;;23.07;59.05;99305.78;1805229;79;21138;-76
2022/07/06 02:59:53;;;;;;;3.65;3.42;;;;;;;23.07;59.03;99305.78;1804986;79;21533;-76
2022/07/06 03:02:20;;;;;;;6.28;3.65;;;;;;;23.06;59.04;99309.41;1805174;79;21529;-77
2022/07/06 03:04:47;;;;;;;4.20;3.90;;;;;;;23.06;58.99;99302.23;1805234;79;21338;-77
2022/07/06 03:07:15;;;;;;;4.12;3.70;;;;;;;23.07;59.20;99307.13;1807017;79;21081;-77
2022/07/06 03:09:45;;;;;;;5.47;4.12;;;;;;;23.05;58.94;99300.99;1805187;79;21041;-77
2022/07/06 03:12:12;;;;;;;8.00;3.85;;;;;;;23.06;59.17;99297.33;1805052;79;21005;-76
2022/07/06 03:14:39;;;;;;;7.08;4.15;;;;;;;23.05;59.27;99298.30;1805070;79;21452;-77
2022/07/06 03:17:06;;;;;;;6.92;4.20;;;;;;;23.08;59.09;99298.06;1805294;79;21017;-75
2022/07/06 03:19:33;;;;;;;7.85;4.25;;;;;;;23.10;59.33;99299.64;1805277;79;21020;-77
2022/07/06 03:22:00;;;;;;;6.37;4.12;;;;;;;23.12;59.44;99299.50;1805329;79;21535;-77
2022/07/06 03:24:27;;;;;;;6.53;3.95;;;;;;;23.14;59.59;99298.87;1805097;79;21021;-77
2022/07/06 03:26:54;;;;;;;4.67;3.62;;;;;;;23.16;59.76;99299.06;1805337;79;21064;-77
2022/07/06 03:29:21;;;;;;;4.40;3.70;;;;;;;23.18;59.52;99305.64;1805071;79;21084;-77
2022/07/06 03:31:48;;;;;;;8.68;4.42;;;;;;;23.20;59.33;99305.03;1805340;79;21685;-77
2022/07/06 03:34:15;;;;;;;5.87;3.65;;;;;;;23.23;59.09;99302.04;1805149;79;21832;-77
2022/07/06 03:36:43;;;;;;;6.90;3.80;;;;;;;23.24;58.25;99302.41;1805175;79;21064;-77
2022/07/06 03:39:11;;;;;;;4.17;3.77;;;;;;;23.25;57.87;99302.77;1805477;79;21029;-77
2022/07/06 03:41:38;;;;;;;6.80;3.45;;;;;;;23.28;57.75;99307.00;1806674;77;21138;-77
2022/07/06 03:44:05;;;;;;;7.65;3.35;;;;;;;23.29;57.22;99308.20;1805180;79;21082;-77
2022/07/06 03:46:33;;;;;;;4.08;3.50;;;;;;;23.32;56.77;99303.06;1805573;78;21126;-77
2022/07/06 03:49:01;;;;;;;5.53;3.65;;;;;;;23.36;57.03;99310.67;1805374;78;21526;-77
2022/07/06 03:51:27;;;;;;;4.05;3.75;;;;;;;23.40;56.94;99306.38;1805241;79;21039;-77
2022/07/06 03:53:54;;;;;;;4.35;3.50;;;;;;;23.46;56.49;99304.48;1805293;79;21094;-77
2022/07/06 03:56:29;;;;;;;5.90;3.35;;;;;;;23.51;56.07;99300.87;1805078;79;21142;-77
2022/07/06 03:59:00;;;;;;;4.67;3.42;;;;;;;23.57;55.82;99301.66;1805395;78;21665;-76
2022/07/06 04:01:28;;;;;;;4.35;3.70;;;;;;;23.61;55.21;99296.34;1805227;79;20988;-77
2022/07/06 04:03:55;;;;;;;3.92;3.33;;;;;;;23.65;55.37;99296.40;1805560;78;21522;-77
2022/07/06 04:06:22;;;;;;;4.05;3.62;;;;;;;23.68;54.99;99294.77;1805235;79;20996;-76
2022/07/06 04:08:48;;;;;;;4.90;3.60;;;;;;;23.72;54.98;99299.36;1805301;79;21111;-76
2022/07/06 04:11:15;;;;;;;8.15;3.83;;;;;;;23.76;54.99;99295.42;1805585;78;21063;-76
2022/07/06 04:13:42;;;;;;;5.70;3.08;;;;;;;23.78;54.67;99292.59;1805294;78;21024;-77
2022/07/06 04:16:10;;;;;;;7.40;3.10;;;;;;;23.80;54.83;99290.09;1805155;79;20972;-76
2022/07/06 04:18:38;;;;;;;4.78;2.83;;;;;;;23.85;54.68;99285.67;1805425;79;20980;-77
2022/07/06 04:21:06;;;;;;;4.50;2.87;;;;;;;23.89;53.98;99284.41;1805358;79;21008;-77
2022/07/06 04:23:36;;;;;;;4.33;3.10;;;;;;;23.95;53.58;99281.63;1805118;79;21209;-77
2022/07/06 04:26:04;;;;;;;6.03;3.27;;;;;;;23.99;53.21;99282.55;1805412;78;21028;-77
2022/07/06 04:28:33;;;;;;;9.53;3.20;;;;;;;24.05;52.84;99284.63;1805023;79;20973;-77
2022/07/06 04:30:59;;;;;;;5.00;3.17;;;;;;;24.10;53.07;99276.98;1805278;79;21094;-77
2022/07/06 04:33:26;;;;;;;7.67;2.95;;;;;;;24.16;52.83;99276.91;1805705;78;20965;-77
2022/07/06 04:35:54;;;;;;;9.40;3.58;;;;;;;24.22;52.85;99276.81;1805294;78;21104;-77
2022/07/06 04:38:22;;;;;;;3.65;3.02;;;;;;;24.27;52.15;99273.19;1805204;78;21028;-77
2022/07/06 04:40:49;;;;;;;4.65;3.00;;;;;;;24.33;52.11;99276.64;1805236;79;21036;-77
2022/07/06 04:43:17;;;;;;;3.62;3.10;;;;;;;24.39;51.44;99263.94;1805754;78;21012;-77
2022/07/06 04:45:43;;;;;;;2.65;2.45;;;;;;;24.47;51.11;99265.38;1806126;78;21007;-76
2022/07/06 04:48:10;;;;;;;6.97;2.72;;;;;;;24.57;51.54;99267.23;1759111;81;21147;-76
2022/07/06 04:50:37;;;;;;;4.15;2.70;;;;;;;24.65;50.51;99256.58;1759050;80;20993;-76
2022/07/06 04:53:04;;;;;;;7.83;2.95;;;;;;;24.71;49.12;99253.27;1759164;80;21044;-76
2022/07/06 04:55:32;;;;;;;3.30;3.00;;;;;;;24.79;49.81;99254.70;1758979;80;20985;-76
2022/07/06 04:57:59;;;;;;;8.68;3.10;;;;;;;24.88;49.38;99250.77;1758921;81;20985;-77
2022/07/06 05:00:26;;;;;;;7.20;3.50;;;;;;;24.96;49.55;99252.20;1759038;81;21168;-77
2022/07/06 05:02:53;;;;;;;5.15;2.83;;;;;;;25.05;49.42;99249.95;1760853;80;21032;-77
2022/07/06 05:05:20;;;;;;;5.12;2.55;;;;;;;25.14;49.10;99251.72;1759127;80;21060;-76
2022/07/06 05:07:47;;;;;;;6.87;2.95;;;;;;;25.22;48.90;99243.72;1759237;81;20988;-77
2022/07/06 05:10:14;;;;;;;11.12;2.67;;;;;;;25.31;48.62;99249.22;1759363;81;21036;-76
2022/07/06 05:12:43;;;;;;;5.22;2.90;;;;;;;25.38;48.44;99244.89;1758917;81;21813;-76
2022/07/06 05:15:10;;;;;;;3.00;2.80;;;;;;;25.44;48.29;99242.94;1759190;81;21497;-76
2022/07/06 05:17:37;;;;;;;5.33;3.00;;;;;;;25.48;48.00;99247.00;1758880;81;21016;-76
2022/07/06 05:20:06;;;;;;;5.03;3.42;;;;;;;25.54;48.15;99246.39;1759115;81;21056;-76
2022/07/06 05:22:34;;;;;;;4.37;2.77;;;;;;;25.62;47.91;99248.80;1759213;81;20985;-77
2022/07/06 05:25:01;;;;;;;6.20;2.70;;;;;;;25.69;47.68;99251.23;1758987;81;21095;-76
2022/07/06 05:27:27;;;;;;;4.05;2.95;;;;;;;25.75;47.71;99254.63;1759302;80;21460;-76
2022/07/06 05:29:54;;;;;;;8.15;2.75;;;;;;;25.82;47.85;99248.94;1759096;81;22143;-76
2022/07/06 05:32:21;;;;;;;3.50;3.20;;;;;;;25.92;47.55;99253.75;1759266;81;21551;-76
2022/07/06 05:34:51;;;;;;;9.78;3.60;;;;;;;26.01;46.57;99249.77;1758997;81;21472;-77
2022/07/06 05:37:19;;;;;;;6.17;3.55;;;;;;;26.09;46.60;99240.38;1758925;81;21230;-76
2022/07/06 05:39:47;;;;;;;9.03;3.87;;;;;;;26.19;47.01;99238.92;1759179;81;20993;-76
2022/07/06 05:42:14;;;;;;;11.18;4.50;;;;;;;26.26;46.55;99255.66;1758866;81;21882;-76
2022/07/06 05:44:41;;;;;;;5.45;3.60;;;;;;;26.31;46.04;99260.07;1760673;80;21484;-77
2022/07/06 05:50:12;;;;;;;7.60;3.02;;;;;;;26.36;46.71;99250.64;1748463;81;21067;-77
2022/07/06 05:52:45;;;;;;;6.03;3.00;;;;;;;26.42;46.74;99248.14;1801386;78;21121;-77
2022/07/06 05:55:13;;;;;;;9.25;3.50;;;;;;;26.48;46.88;99248.02;1800402;79;21039;-77
2022/07/06 05:57:40;;;;;;;5.55;3.05;;;;;;;26.53;46.19;99244.33;1800662;79;21074;-77
2022/07/06 06:00:08;;;;;;;7.00;3.30;;;;;;;26.51;45.67;99243.14;1800239;79;21067;-77
2022/07/06 06:02:42;;;;;;;5.25;3.15;;;;;;;26.45;45.33;99240.24;1799443;79;20992;-77
2022/07/06 06:05:11;;;;;;;6.78;3.00;;;;;;;26.43;45.47;99239.56;1800372;79;21082;-76
2022/07/06 06:07:40;;;;;;;11.25;4.05;;;;;;;26.42;46.35;99231.95;1800583;79;21046;-77
2022/07/06 06:10:11;;;;;;;6.80;3.87;;;;;;;26.45;46.33;99214.10;1800587;79;21074;-77
2022/07/06 06:12:38;;;;;;;4.70;3.20;;;;;;;26.52;46.47;99214.30;1800244;79;21054;-77
2022/07/06 06:15:06;;;;;;;7.40;2.50;;;;;;;26.62;46.43;99216.35;1799902;79;21103;-77
2022/07/06 06:17:36;;;;;;;4.75;2.55;;;;;;;26.74;46.24;99217.44;1802405;79;21111;-76
2022/07/06 06:20:09;;;;;;;2.98;2.70;;;;;;;26.85;45.95;99219.84;1802764;79;21065;-77
2022/07/06 06:22:54;;;;;;;7.00;3.40;;;;;;;26.95;45.70;99209.73;1802650;79;21449;-77
2022/07/06 06:25:37;;;;;;;6.17;2.58;;;;;;;27.08;45.08;99209.73;1802732;79;21120;-76
2022/07/06 06:28:08;;;;;;;8.70;2.85;;;;;;;27.17;44.93;99210.94;1802629;79;21943;-77
2022/07/06 06:30:36;;;;;;;2.77;2.17;;;;;;;27.25;44.12;99208.23;1802712;79;21104;-77
2022/07/06 06:33:14;;;;;;;4.10;2.90;;;;;;;27.35;43.18;99201.84;1802589;79;21061;-77
2022/07/06 06:35:48;;;;;;;11.12;2.60;;;;;;;27.41;43.14;99202.02;1802551;79;21079;-76
2022/07/06 06:38:15;;;;;;;3.87;2.80;;;;;;;27.49;44.17;99208.42;1801654;79;21033;-76
2022/07/06 06:40:42;;;;;;;4.35;2.60;;;;;;;27.56;42.56;99198.64;1802791;79;21679;-76
2022/07/06 06:43:08;;;;;;;4.35;2.12;;;;;;;27.61;42.75;99198.97;1802488;79;20997;-76
2022/07/06 06:45:37;;;;;;;5.05;2.30;;;;;;;27.66;43.00;99191.19;1802453;79;21072;-76
2022/07/06 06:48:04;;;;;;;3.30;2.75;;;;;;;27.74;42.72;99192.53;1804633;79;21025;-76
2022/07/06 06:50:31;;;;;;;5.45;2.37;;;;;;;27.82;42.52;99189.47;1804912;79;21073;-76
2022/07/06 06:52:57;;;;;;;4.08;2.20;;;;;;;27.89;41.81;99190.45;1805439;79;21459;-77
2022/07/06 06:55:24;;;;;;;6.10;2.47;;;;;;;27.97;41.96;99177.81;1805081;79;21092;-77
2022/07/06 06:57:51;;;;;;;12.05;2.40;;;;;;;28.05;41.53;99174.22;1805248;78;21066;-77
2022/07/06 07:00:17;;;;;;;8.10;2.47;;;;;;;28.15;41.54;99172.16;1780467;79;21587;-77
2022/07/06 07:02:45;;;;;;;8.43;2.70;;;;;;;28.25;41.88;99175.17;1805520;79;21151;-77
2022/07/06 07:05:11;;;;;;;6.78;2.15;;;;;;;28.37;41.97;99173.75;1805333;79;21092;-77
2022/07/06 07:07:38;;;;;;;3.58;2.15;;;;;;;28.48;41.15;99176.56;1805333;79;21109;-77
2022/07/06 07:10:07;;;;;;;3.87;2.10;;;;;;;28.59;41.18;99172.66;1805364;78;22088;-77
2022/07/06 07:12:34;;;;;;;8.05;2.00;;;;;;;28.68;40.78;99173.80;1805094;78;21040;-77
2022/07/06 07:15:01;;;;;;;2.22;2.02;;;;;;;28.75;41.12;99179.34;1805405;79;21084;-78
2022/07/06 07:17:28;;;;;;;5.17;2.70;;;;;;;28.81;40.73;99171.84;1805366;79;21122;-76
2022/07/06 07:19:57;;;;;;;4.80;2.50;;;;;;;28.86;41.00;99171.31;1805643;79;21080;-77
2022/07/06 07:22:24;;;;;;;12.88;2.30;;;;;;;28.91;40.99;99167.55;1805473;79;21071;-77
2022/07/06 07:24:51;;;;;;;5.10;2.52;;;;;;;28.99;40.86;99164.78;1805231;78;21139;-77
2022/07/06 07:27:18;;;;;;;8.40;2.45;;;;;;;29.06;41.08;99170.32;1805582;78;21100;-77
2022/07/06 07:29:45;;;;;;;8.08;2.02;;;;;;;29.12;41.41;99165.55;1805064;79;21096;-77
2022/07/06 07:32:12;;;;;;;6.37;2.22;;;;;;;29.17;41.13;99160.45;1805404;79;21132;-77
2022/07/06 07:34:39;;;;;;;5.87;2.05;;;;;;;29.24;40.97;99158.69;1805108;79;21068;-77
2022/07/06 07:37:07;;;;;;;7.03;2.35;;;;;;;29.30;40.88;99158.98;1805294;78;21119;-77
2022/07/06 07:39:33;;;;;;;4.70;2.47;;;;;;;29.37;41.08;99165.34;1805034;79;21100;-77
2022/07/06 07:42:00;;;;;;;3.17;2.55;;;;;;;29.42;40.66;99166.50;1805412;78;21514;-77
2022/07/06 07:44:28;;;;;;;6.78;2.40;;;;;;;29.48;40.79;99161.36;1805185;79;21143;-77
2022/07/06 07:46:54;;;;;;;3.05;2.20;;;;;;;29.54;41.34;99171.45;1805225;79;21852;-77
2022/07/06 07:49:21;;;;;;;5.60;2.30;;;;;;;29.57;39.78;99158.40;1805070;79;21535;-77
2022/07/06 07:51:49;;;;;;;5.10;1.90;;;;;;;29.63;39.84;99172.55;1809655;78;21483;-76
2022/07/06 07:54:16;;;;;;;3.58;2.17;;;;;;;29.70;39.69;99160.97;1805456;79;22183;-77
2022/07/06 07:56:43;;;;;;;3.58;2.02;;;;;;;29.75;39.78;99161.26;1805004;79;21589;-77
2022/07/06 07:59:09;;;;;;;6.17;2.12;;;;;;;29.80;39.55;99153.44;1805580;79;21598;-77
2022/07/06 08:01:36;;;;;;;4.37;2.30;;;;;;;29.87;39.47;99154.36;1738680;82;21583;-77
2022/07/06 08:04:04;;;;;;;4.05;1.95;;;;;;;29.95;39.43;99153.44;1769302;81;21727;-77
2022/07/06 08:06:30;;;;;;;7.72;2.00;;;;;;;29.98;38.73;99152.55;1766208;80;21133;-76
2022/07/06 08:08:57;;;;;;;5.40;2.00;;;;;;;30.04;38.34;99160.96;1778907;80;21118;-77
2022/07/06 08:11:24;;;;;;;4.30;2.02;;;;;;;30.08;38.75;99165.00;1778923;80;21102;-77
2022/07/06 08:13:53;;;;;;;9.33;2.40;;;;;;;30.13;37.39;99159.84;1778839;80;21613;-76
2022/07/06 08:16:20;;;;;;;3.37;2.10;;;;;;;30.16;38.18;99159.45;1778843;80;21545;-76
2022/07/06 08:18:46;;;;;;;2.40;2.00;;;;;;;30.23;37.55;99158.17;1778699;80;21138;-77
2022/07/06 08:21:13;;;;;;;4.65;2.12;;;;;;;30.30;37.87;99150.45;1778990;80;20988;-77
2022/07/06 08:23:39;;;;;;;3.60;2.05;;;;;;;30.41;37.12;99153.74;1779255;80;20996;-77
2022/07/06 08:26:06;;;;;;;1.80;1.70;;;;;;;30.47;37.74;99148.92;1807280;79;20988;-77
2022/07/06 08:28:33;;;;;;;2.42;2.10;;;;;;;30.55;37.22;99152.88;1807214;79;21503;-76
2022/07/06 08:30:59;;;;;;;4.30;1.90;;;;;;;30.60;36.94;99145.00;1807274;79;21118;-77
2022/07/06 08:33:26;;;;;;;7.30;1.95;;;;;;;30.67;37.35;99148.62;1807538;78;21007;-76
2022/07/06 08:35:52;;;;;;;3.47;2.00;;;;;;;30.76;37.07;99147.97;1807169;79;20993;-76
2022/07/06 08:38:19;;;;;;;7.17;2.10;;;;;;;30.84;37.28;99138.34;1807245;79;21099;-76
2022/07/06 08:40:49;;;;;;;6.62;2.37;;;;;;;30.93;37.70;99133.62;1807361;79;21043;-77
2022/07/06 08:43:16;;;;;;;5.75;2.45;;;;;;;31.04;37.52;99144.00;1807324;78;21110;-77
2022/07/06 08:45:46;;;;;;;2.25;1.98;;;;;;;31.14;36.61;99139.60;1807318;79;21054;-77
2022/07/06 08:48:13;;;;;;;5.05;2.00;;;;;;;31.21;35.54;99136.41;1800340;78;21562;-77
2022/07/06 08:50:40;;;;;;;4.92;1.95;;;;;;;31.32;36.02;99133.70;1796261;79;21590;-77
2022/07/06 08:53:07;;;;;;;1.95;1.85;;;;;;;31.39;35.26;99142.73;1796208;79;21472;-76
2022/07/06 08:55:33;;;;;;;2.08;1.40;;;;;;;31.45;35.07;99135.13;1796059;78;21241;-77
2022/07/06 08:58:00;;;;;;;6.15;1.95;;;;;;;31.50;34.60;99139.98;1796514;78;21071;-77
2022/07/06 09:00:26;;;;;;;9.98;2.45;;;;;;;31.54;35.23;99133.16;1796085;79;21039;-76
2022/07/06 09:02:56;;;;;;;5.65;1.92;;;;;;;31.61;35.11;99122.33;1796068;78;20984;-77
2022/07/06 09:05:22;;;;;;;4.05;1.62;;;;;;;31.73;35.86;99116.64;1796230;79;20969;-76
2022/07/06 09:07:50;;;;;;;10.43;1.90;;;;;;;31.84;34.92;99112.00;1796357;79;21040;-77
2022/07/06 09:10:18;;;;;;;2.00;1.57;;;;;;;31.94;35.19;99123.88;1796037;78;21037;-77
2022/07/06 09:12:44;;;;;;;2.80;1.77;;;;;;;32.02;34.37;99112.80;1796101;78;21082;-77
2022/07/06 09:15:11;;;;;;;6.33;1.95;;;;;;;32.10;33.59;99109.64;1796179;78;20989;-77
2022/07/06 09:17:42;;;;;;;9.10;2.47;;;;;;;32.14;34.15;99116.34;1796134;79;21020;-76
2022/07/06 09:20:10;;;;;;;2.77;1.70;;;;;;;32.17;33.53;99108.61;1796460;78;22229;-77
2022/07/06 09:22:37;;;;;;;7.12;2.20;;;;;;;32.20;33.53;99108.20;1796106;79;21036;-76
2022/07/06 09:25:06;;;;;;;2.77;2.02;;;;;;;32.25;32.63;99104.88;1796076;79;21130;-77
2022/07/06 09:27:49;;;;;;;4.35;2.08;;;;;;;32.31;32.00;99104.58;1796203;78;20984;-77
2022/07/06 09:30:14;;;;;;;6.65;2.00;;;;;;;32.32;32.13;99094.02;1795920;79;21102;-77
2022/07/06 09:32:46;;;;;;;6.47;2.55;;;;;;;32.37;32.36;99103.77;1796105;78;21142;-76
2022/07/06 09:35:36;;;;;;;8.33;2.72;;;;;;;32.42;31.57;99090.91;1795813;79;21464;-77
2022/07/06 09:38:07;;;;;;;6.08;2.25;;;;;;;32.44;30.96;99084.20;1795980;79;21114;-77
2022/07/06 09:40:37;;;;;;;7.85;2.40;;;;;;;32.48;30.61;99088.20;1796440;78;22267;-76
2022/07/06 09:43:18;;;;;;;5.00;2.30;;;;;;;32.51;30.36;99086.94;1796291;78;21075;-77
2022/07/06 09:45:55;;;;;;;2.40;2.20;;;;;;;32.58;29.94;99099.53;1796172;79;21210;-76
2022/07/06 09:48:27;;;;;;;2.98;2.10;;;;;;;32.64;30.53;99086.17;1795926;79;20981;-76
2022/07/06 09:51:06;;;;;;;8.88;2.58;;;;;;;32.71;30.08;99093.81;1795969;78;21067;-77
2022/07/06 09:53:35;;;;;;;6.62;2.60;;;;;;;32.76;29.56;99084.50;1772254;79;21049;-76
2022/07/06 09:56:02;;;;;;;4.92;2.33;;;;;;;32.84;29.40;99084.30;1766917;81;21080;-77
2022/07/06 09:58:28;;;;;;;7.20;2.40;;;;;;;32.91;29.09;99075.59;1768594;80;21225;-77
2022/07/06 10:00:56;;;;;;;4.67;2.27;;;;;;;33.02;29.67;99074.65;1769431;80;21001;-77
2022/07/06 10:03:23;;;;;;;6.53;2.58;;;;;;;33.13;29.66;99074.03;1756645;81;21088;-77
2022/07/06 10:05:49;;;;;;;5.85;2.80;;;;;;;33.22;28.97;99078.77;1769449;80;21032;-76
2022/07/06 10:08:17;;;;;;;4.85;2.67;;;;;;;33.23;27.93;99078.55;1769560;81;20984;-77
2022/07/06 10:10:45;;;;;;;3.75;2.47;;;;;;;33.22;27.17;99072.81;1769376;80;21441;-77
2022/07/06 10:13:12;;;;;;;3.85;2.47;;;;;;;33.21;27.58;99065.67;1769697;80;21433;-77
2022/07/06 10:15:39;;;;;;;4.83;2.62;;;;;;;33.17;28.39;99065.80;1769560;81;21598;-77
2022/07/06 10:18:08;;;;;;;3.05;2.85;;;;;;;33.20;28.54;99066.70;1769529;81;20989;-76
2022/07/06 10:20:38;;;;;;;6.15;2.70;;;;;;;33.24;27.72;99062.52;1769912;81;21076;-76
2022/07/06 10:23:07;;;;;;;2.75;2.52;;;;;;;33.28;27.96;99066.48;1769561;80;21013;-76
2022/07/06 10:25:34;;;;;;;3.95;2.75;;;;;;;33.33;27.96;99051.70;1769613;80;21057;-76
2022/07/06 10:28:01;;;;;;;3.95;2.72;;;;;;;33.38;27.89;99047.51;1769831;80;21012;-76
2022/07/06 10:30:28;;;;;;;5.95;3.40;;;;;;;33.40;28.41;99050.85;1769417;80;21487;-76
2022/07/06 10:32:56;;;;;;;6.03;3.15;;;;;;;33.36;27.89;99057.80;1769761;81;21087;-77
2022/07/06 10:35:24;;;;;;;5.12;2.90;;;;;;;33.22;27.79;99043.33;1769500;81;21103;-77
2022/07/06 10:38:08;;;;;;;12.60;3.22;;;;;;;33.02;28.13;99050.13;1769323;80;21028;-77
2022/07/06 10:43:32;;;;;;;10.40;3.33;;;;;;;32.81;28.79;99034.31;1769600;81;20206;-77
2022/07/06 10:45:59;;;;;;;7.10;3.08;;;;;;;32.82;28.41;99032.41;1769384;80;21107;-77
2022/07/06 10:48:27;;;;;;;3.33;2.90;;;;;;;32.84;29.02;99027.09;1776031;80;21473;-76
2022/07/06 10:50:54;;;;;;;8.43;3.10;;;;;;;32.90;28.81;99028.12;1759279;80;21059;-77
2022/07/06 10:53:25;;;;;;;5.20;2.80;;;;;;;33.00;29.15;99027.70;1785210;80;20989;-76
2022/07/06 10:55:56;;;;;;;10.65;3.00;;;;;;;33.03;29.20;99023.20;1785403;80;21064;-77
2022/07/06 10:58:52;;;;;;;8.05;2.72;;;;;;;33.03;29.71;99024.56;1785258;80;20989;-76
2022/07/06 11:01:21;;;;;;;4.47;2.52;;;;;;;33.04;29.49;99010.72;1785535;80;21747;-76
2022/07/06 11:04:03;;;;;;;12.18;3.15;;;;;;;33.03;28.54;99015.02;1785111;80;20988;-77
2022/07/06 11:06:37;;;;;;;6.62;3.00;;;;;;;32.88;29.23;99012.52;1785543;80;21087;-77
2022/07/06 11:09:09;;;;;;;8.63;2.72;;;;;;;32.82;29.60;99004.66;1785193;80;21148;-76
2022/07/06 11:11:41;;;;;;;6.97;2.80;;;;;;;32.88;29.15;98998.89;1785479;79;22189;-77
2022/07/06 11:14:14;;;;;;;8.85;2.95;;;;;;;32.93;29.55;98983.60;1785314;80;21171;-76
2022/07/06 11:16:54;;;;;;;5.58;2.52;;;;;;;33.13;29.88;98984.08;1784981;80;20982;-77
2022/07/06 11:19:25;;;;;;;5.78;2.72;;;;;;;33.33;29.89;98972.63;1785097;80;21400;-77
2022/07/06 11:22:06;;;;;;;7.17;2.85;;;;;;;33.58;28.95;98976.55;1785579;79;21619;-77
2022/07/06 11:24:36;;;;;;;4.25;2.72;;;;;;;33.78;28.68;98969.67;1785072;80;20969;-76
2022/07/06 11:27:06;;;;;;;2.75;2.47;;;;;;;33.93;27.87;98970.21;1785186;79;21480;-77
2022/07/06 11:29:38;;;;;;;5.72;2.65;;;;;;;34.03;27.53;98967.84;1784884;80;21038;-77
2022/07/06 11:32:09;;;;;;;8.98;2.37;;;;;;;34.15;28.00;98968.52;1785157;80;21047;-77
2022/07/06 11:34:40;;;;;;;7.33;2.47;;;;;;;34.28;27.87;98965.73;1785522;79;21139;-76
2022/07/06 11:37:11;;;;;;;2.47;2.27;;;;;;;34.38;27.50;98966.58;1785130;79;21044;-77
2022/07/06 11:39:41;;;;;;;10.95;2.65;;;;;;;34.40;27.08;98970.77;1785487;79;21099;-77
2022/07/06 11:42:11;;;;;;;9.95;2.70;;;;;;;34.23;26.60;98968.28;1785388;80;21044;-76
2022/07/06 11:44:38;;;;;;;5.03;2.47;;;;;;;33.99;26.75;98962.50;1785542;80;21917;-76
2022/07/06 11:47:06;;;;;;;5.55;2.77;;;;;;;33.84;27.14;98968.78;1785367;80;22052;-77